createdAt,value
2023-01-28T00:01:23.067Z,-5.50
2023-01-28T00:03:51.483Z,-5.60
2023-01-28T00:06:21.777Z,-5.60
2023-01-28T00:08:48.831Z,-5.60
2023-01-28T00:11:15.723Z,-5.60
2023-01-28T00:13:42.768Z,-5.60
2023-01-28T00:16:10.254Z,-5.50
2023-01-28T00:18:38.092Z,-5.50
2023-01-28T00:21:06.546Z,-5.40
2023-01-28T00:23:36.237Z,-5.40
2023-01-28T00:26:06.929Z,-5.40
2023-01-28T00:28:34.066Z,-5.40
2023-01-28T00:31:07.212Z,-5.30
2023-01-28T00:33:34.007Z,-5.30
2023-01-28T00:36:01.889Z,-5.30
2023-01-28T00:38:29.352Z,-5.20
2023-01-28T00:40:56.461Z,-5.30
2023-01-28T00:43:23.788Z,-5.30
2023-01-28T00:45:50.774Z,-5.30
2023-01-28T00:48:17.599Z,-5.40
2023-01-28T00:50:45.896Z,-5.40
2023-01-28T00:53:14.163Z,-5.30
2023-01-28T00:55:41.037Z,-5.30
2023-01-28T00:58:08.909Z,-5.30
2023-01-28T01:00:35.771Z,-5.20
2023-01-28T01:03:02.574Z,-5.10
2023-01-28T01:05:29.841Z,-5.10
2023-01-28T01:07:56.751Z,-5.10
2023-01-28T01:10:23.620Z,-5.10
2023-01-28T01:12:50.722Z,-5.10
2023-01-28T01:15:19.384Z,-5.00
2023-01-28T01:17:48.591Z,-5.00
2023-01-28T01:20:21.780Z,-5.00
2023-01-28T01:22:48.978Z,-5.00
2023-01-28T01:25:18.145Z,-5.10
2023-01-28T01:27:48.649Z,-5.10
2023-01-28T01:30:16.927Z,-5.10
2023-01-28T01:32:43.774Z,-5.20
2023-01-28T01:35:11.163Z,-5.30
2023-01-28T01:37:39.803Z,-5.20
2023-01-28T01:40:07.967Z,-5.10
2023-01-28T01:42:35.262Z,-5.00
2023-01-28T01:45:07.711Z,-4.90
2023-01-28T01:47:44.935Z,-4.90
2023-01-28T01:50:32.328Z,-4.80
2023-01-28T01:53:04.581Z,-4.70
2023-01-28T01:55:36.643Z,-4.50
2023-01-28T01:58:08.764Z,-4.50
2023-01-28T02:00:35.771Z,-4.50
2023-01-28T02:03:03.210Z,-4.40
2023-01-28T02:05:30.312Z,-4.40
2023-01-28T02:08:19.708Z,-4.50
2023-01-28T02:10:50.517Z,-4.50
2023-01-28T02:13:24.804Z,-4.60
2023-01-28T02:15:52.365Z,-4.50
2023-01-28T02:18:19.245Z,-4.50
2023-01-28T02:21:14.924Z,-4.40
2023-01-28T02:24:19.413Z,-4.30
2023-01-28T02:27:27.325Z,-4.30
2023-01-28T02:30:22.562Z,-4.20
2023-01-28T02:32:56.374Z,-4.20
2023-01-28T02:35:35.551Z,-4.20
2023-01-28T02:38:12.588Z,-4.10
2023-01-28T02:41:02.188Z,-4.00
2023-01-28T02:43:47.191Z,-4.00
2023-01-28T02:46:44.849Z,-3.80
2023-01-28T02:49:17.477Z,-3.60
2023-01-28T02:52:15.116Z,-3.50
2023-01-28T02:55:04.308Z,-3.30
2023-01-28T02:57:33.869Z,-3.40
2023-01-28T03:00:19.856Z,-3.40
2023-01-28T03:03:07.018Z,-3.50
2023-01-28T03:05:42.743Z,-3.60
2023-01-28T03:08:30.393Z,-3.70
2023-01-28T03:11:17.585Z,-3.70
2023-01-28T03:14:05.399Z,-3.70
2023-01-28T03:16:52.559Z,-3.70
2023-01-28T03:19:39.455Z,-3.70
2023-01-28T03:22:24.998Z,-3.70
2023-01-28T03:25:11.615Z,-3.70
2023-01-28T03:28:23.091Z,-3.60
2023-01-28T03:31:34.871Z,-3.50
2023-01-28T03:34:21.985Z,-3.40
2023-01-28T03:36:49.854Z,-3.50
2023-01-28T03:39:39.587Z,-3.60
2023-01-28T03:42:14.280Z,-3.80
2023-01-28T03:44:57.751Z,-3.90
2023-01-28T03:47:27.269Z,-4.00
2023-01-28T03:49:56.262Z,-4.00
2023-01-28T03:52:32.171Z,-4.10
2023-01-28T03:55:15.876Z,-4.20
2023-01-28T03:57:44.968Z,-4.20
2023-01-28T04:00:13.153Z,-4.30
2023-01-28T04:02:43.226Z,-4.30
2023-01-28T04:05:15.988Z,-4.30
2023-01-28T04:07:47.427Z,-4.40
2023-01-28T04:10:34.632Z,-4.50
2023-01-28T04:13:08.706Z,-4.60
2023-01-28T04:15:36.594Z,-4.70
2023-01-28T04:18:03.755Z,-4.80
2023-01-28T04:20:31.937Z,-4.80
2023-01-28T04:23:00.629Z,-4.90
2023-01-28T04:25:28.875Z,-5.00
2023-01-28T04:27:56.056Z,-5.10
2023-01-28T04:30:25.924Z,-5.10
2023-01-28T04:33:16.142Z,-5.10
2023-01-28T04:35:57.785Z,-5.10
2023-01-28T04:38:54.042Z,-5.20
2023-01-28T04:41:41.206Z,-5.20
2023-01-28T04:44:17.255Z,-5.30
2023-01-28T04:47:15.737Z,-5.50
2023-01-28T04:49:55.951Z,-5.60
2023-01-28T04:52:45.906Z,-5.60
2023-01-28T04:55:20.811Z,-5.60
2023-01-28T04:57:48.798Z,-5.70
2023-01-28T05:00:16.093Z,-5.60
2023-01-28T05:02:42.949Z,-5.70
2023-01-28T05:05:10.108Z,-5.60
2023-01-28T05:07:59.338Z,-5.70
2023-01-28T05:10:27.703Z,-5.60
2023-01-28T05:12:55.073Z,-5.50
2023-01-28T05:15:22.460Z,-5.50
2023-01-28T05:17:50.913Z,-5.50
2023-01-28T05:20:21.758Z,-5.50
2023-01-28T05:22:49.796Z,-5.60
2023-01-28T05:25:20.720Z,-5.70
2023-01-28T05:27:52.289Z,-5.70
2023-01-28T05:30:20.732Z,-5.80
2023-01-28T05:32:48.265Z,-5.80
2023-01-28T05:35:18.034Z,-5.80
2023-01-28T05:37:45.142Z,-5.90
2023-01-28T05:40:13.012Z,-6.00
2023-01-28T05:42:40.082Z,-6.10
2023-01-28T05:45:29.447Z,-6.00
2023-01-28T05:48:02.523Z,-6.00
2023-01-28T05:50:50.033Z,-6.00
2023-01-28T05:53:21.492Z,-6.00
2023-01-28T05:55:51.613Z,-6.00
2023-01-28T05:58:18.492Z,-6.00
2023-01-28T06:00:45.518Z,-6.00
2023-01-28T06:03:13.286Z,-6.00
2023-01-28T06:05:40.275Z,-6.00
2023-01-28T06:08:07.515Z,-6.00
2023-01-28T06:10:34.797Z,-6.10
2023-01-28T06:13:02.217Z,-6.20
2023-01-28T06:16:00.693Z,-6.10
2023-01-28T06:18:41.639Z,-6.10
2023-01-28T06:21:09.244Z,-6.10
2023-01-28T06:23:37.060Z,-6.10
2023-01-28T06:26:08.048Z,-6.10
2023-01-28T06:28:36.533Z,-6.20
2023-01-28T06:31:03.551Z,-6.10
2023-01-28T06:33:30.735Z,-6.10
2023-01-28T06:35:57.597Z,-6.00
2023-01-28T06:38:24.557Z,-5.90
2023-01-28T06:40:53.083Z,-5.90
2023-01-28T06:43:19.979Z,-6.00
2023-01-28T06:45:46.768Z,-6.00
2023-01-28T06:48:13.522Z,-6.10
2023-01-28T06:50:40.349Z,-6.10
2023-01-28T06:53:07.236Z,-6.20
2023-01-28T06:55:33.995Z,-6.20
2023-01-28T06:58:01.061Z,-6.30
2023-01-28T07:00:27.837Z,-6.40
2023-01-28T07:02:57.871Z,-6.40
2023-01-28T07:05:25.228Z,-6.50
2023-01-28T07:07:52.278Z,-6.50
2023-01-28T07:10:19.181Z,-6.60
2023-01-28T07:12:46.227Z,-6.60
2023-01-28T07:15:15.144Z,-6.50
2023-01-28T07:17:42.667Z,-6.60
2023-01-28T07:20:12.343Z,-6.50
2023-01-28T07:22:42.097Z,-6.50
2023-01-28T07:25:10.105Z,-6.60
2023-01-28T07:27:37.195Z,-6.60
2023-01-28T07:30:04.594Z,-6.60
2023-01-28T07:32:31.428Z,-6.60
2023-01-28T07:34:59.144Z,-6.50
2023-01-28T07:37:25.888Z,-6.50
2023-01-28T07:39:52.762Z,-6.50
2023-01-28T07:42:19.676Z,-6.50
2023-01-28T07:44:47.350Z,-6.50
2023-01-28T07:47:14.282Z,-6.50
2023-01-28T07:49:41.268Z,-6.40
2023-01-28T07:52:08.877Z,-6.50
2023-01-28T07:54:35.694Z,-6.50
2023-01-28T07:57:02.827Z,-6.40
2023-01-28T07:59:29.655Z,-6.60
2023-01-28T08:01:56.555Z,-6.60
2023-01-28T08:04:23.586Z,-6.60
2023-01-28T08:06:52.270Z,-6.60
2023-01-28T08:09:19.173Z,-6.60
2023-01-28T08:11:46.015Z,-6.60
2023-01-28T08:14:12.887Z,-6.60
2023-01-28T08:16:39.723Z,-6.50
2023-01-28T08:19:06.757Z,-6.40
2023-01-28T08:21:33.493Z,-6.40
2023-01-28T08:24:00.372Z,-6.30
2023-01-28T08:26:27.341Z,-6.20
2023-01-28T08:28:54.175Z,-6.20
2023-01-28T08:31:21.077Z,-6.10
2023-01-28T08:33:47.978Z,-6.10
2023-01-28T08:36:15.746Z,-6.10
2023-01-28T08:38:43.594Z,-6.20
2023-01-28T08:41:10.524Z,-6.20
2023-01-28T08:43:37.327Z,-6.20
2023-01-28T08:46:07.683Z,-6.30
2023-01-28T08:48:34.542Z,-6.30
2023-01-28T08:51:01.464Z,-6.20
2023-01-28T08:53:28.263Z,-6.10
2023-01-28T08:55:55.593Z,-6.00
2023-01-28T08:58:22.688Z,-5.90
2023-01-28T09:00:50.609Z,-5.80
2023-01-28T09:03:17.977Z,-5.70
2023-01-28T09:05:45.066Z,-5.60
2023-01-28T09:08:14.309Z,-5.50
2023-01-28T09:10:42.247Z,-5.30
2023-01-28T09:13:14.526Z,-5.20
2023-01-28T09:15:41.957Z,-5.10
2023-01-28T09:18:09.243Z,-5.10
2023-01-28T09:20:37.549Z,-4.90
2023-01-28T09:23:05.129Z,-4.70
2023-01-28T09:25:32.242Z,-4.50
2023-01-28T09:27:59.366Z,-4.30
2023-01-28T09:30:26.906Z,-4.10
2023-01-28T09:32:55.154Z,-4.00
2023-01-28T09:35:22.879Z,-3.80
2023-01-28T09:37:50.041Z,-3.60
2023-01-28T09:40:37.253Z,-3.50
2023-01-28T09:43:18.154Z,-3.50
2023-01-28T09:45:49.208Z,-3.50
2023-01-28T09:48:32.748Z,-3.50
2023-01-28T09:51:01.592Z,-3.50
2023-01-28T09:53:33.740Z,-3.50
2023-01-28T09:56:09.773Z,-3.40
2023-01-28T09:58:36.669Z,-3.30
2023-01-28T10:01:25.155Z,-3.20
2023-01-28T10:04:23.292Z,-3.20
2023-01-28T10:07:16.863Z,-3.10
2023-01-28T10:10:16.163Z,-3.00
2023-01-28T10:12:43.210Z,-3.10
2023-01-28T10:15:28.939Z,-3.00
2023-01-28T10:18:16.015Z,-2.90
2023-01-28T10:20:49.869Z,-2.80
2023-01-28T10:23:20.527Z,-2.80
2023-01-28T10:25:48.678Z,-2.70
2023-01-28T10:28:25.386Z,-2.70
2023-01-28T10:30:52.452Z,-2.60
2023-01-28T10:33:35.733Z,-2.50
2023-01-28T10:36:03.050Z,-2.40
2023-01-28T10:38:31.721Z,-2.40
2023-01-28T10:41:02.181Z,-2.30
2023-01-28T10:43:35.759Z,-2.20
2023-01-28T10:46:21.282Z,-2.10
2023-01-28T10:49:13.828Z,-1.90
2023-01-28T10:51:42.764Z,-1.80
2023-01-28T10:54:24.948Z,-1.70
2023-01-28T10:57:02.496Z,-1.60
2023-01-28T10:59:41.644Z,-1.50
2023-01-28T11:02:27.006Z,-1.50
2023-01-28T11:05:26.494Z,-1.40
2023-01-28T11:08:14.023Z,-1.30
2023-01-28T11:10:41.932Z,-1.20
2023-01-28T11:13:30.074Z,-1.10
2023-01-28T11:16:06.808Z,-1.00
2023-01-28T11:18:39.054Z,-0.80
2023-01-28T11:21:15.206Z,-0.70
2023-01-28T11:23:51.017Z,-0.60
2023-01-28T11:26:22.638Z,-0.50
2023-01-28T11:28:50.198Z,-0.40
2023-01-28T11:31:19.178Z,-0.20
2023-01-28T11:33:50.645Z,-0.10
2023-01-28T11:36:29.472Z,0.10
2023-01-28T11:39:19.032Z,0.30
2023-01-28T11:41:47.820Z,0.50
2023-01-28T11:44:16.878Z,0.80
2023-01-28T11:46:43.655Z,0.90
2023-01-28T11:49:13.252Z,1.10
2023-01-28T11:52:03.001Z,1.10
2023-01-28T11:54:29.803Z,1.00
2023-01-28T11:57:10.911Z,0.90
2023-01-28T11:59:59.165Z,1.00
2023-01-28T12:02:44.988Z,1.00
2023-01-28T12:05:34.877Z,1.10
2023-01-28T12:08:26.535Z,1.20
2023-01-28T12:11:42.260Z,1.20
2023-01-28T12:14:27.874Z,1.30
2023-01-28T12:17:19.519Z,1.40
2023-01-28T12:20:00.193Z,1.50
2023-01-28T12:22:43.320Z,1.70
2023-01-28T12:25:54.526Z,1.80
2023-01-28T12:28:30.801Z,2.10
2023-01-28T12:31:15.446Z,2.10
2023-01-28T12:33:48.515Z,2.20
2023-01-28T12:36:42.870Z,2.20
2023-01-28T12:39:21.180Z,2.10
2023-01-28T12:41:54.116Z,2.20
2023-01-28T12:44:26.368Z,2.20
2023-01-28T12:47:02.789Z,2.30
2023-01-28T12:49:39.005Z,2.30
2023-01-28T12:52:08.566Z,2.40
2023-01-28T12:54:49.621Z,2.40
2023-01-28T12:57:24.441Z,2.30
2023-01-28T13:00:25.315Z,2.20
2023-01-28T13:03:20.217Z,2.10
2023-01-28T13:05:53.876Z,2.00
2023-01-28T13:08:26.297Z,1.90
2023-01-28T13:10:55.049Z,1.70
2023-01-28T13:13:44.104Z,1.70
2023-01-28T13:16:12.327Z,1.60
2023-01-28T13:18:51.037Z,1.60
2023-01-28T13:21:39.966Z,1.70
2023-01-28T13:24:12.728Z,1.80
2023-01-28T13:26:46.411Z,1.90
2023-01-28T13:29:24.822Z,2.10
2023-01-28T13:32:00.444Z,2.10
2023-01-28T13:34:40.726Z,2.30
2023-01-28T13:37:22.777Z,2.40
2023-01-28T13:39:52.803Z,2.50
2023-01-28T13:42:29.072Z,2.60
2023-01-28T13:44:57.235Z,2.70
2023-01-28T13:47:30.951Z,2.70
2023-01-28T13:50:07.521Z,2.80
2023-01-28T13:52:45.597Z,2.90
2023-01-28T13:55:12.357Z,3.00
2023-01-28T13:57:57.065Z,3.00
2023-01-28T14:00:26.201Z,3.10
2023-01-28T14:03:22.000Z,3.10
2023-01-28T14:06:07.659Z,3.20
2023-01-28T14:09:24.525Z,3.20
2023-01-28T14:12:18.459Z,3.30
2023-01-28T14:15:12.334Z,3.30
2023-01-28T14:17:57.088Z,3.30
2023-01-28T14:20:41.461Z,3.30
2023-01-28T14:23:17.650Z,3.40
2023-01-28T14:26:06.611Z,3.40
2023-01-28T14:28:33.396Z,3.40
2023-01-28T14:31:15.274Z,3.50
2023-01-28T14:33:43.194Z,3.60
2023-01-28T14:36:12.137Z,3.60
2023-01-28T14:38:42.297Z,3.60
2023-01-28T14:41:10.562Z,3.50
2023-01-28T14:43:40.614Z,3.50
2023-01-28T14:46:12.970Z,3.40
2023-01-28T14:49:03.629Z,3.30
2023-01-28T14:52:04.052Z,3.30
2023-01-28T14:54:48.437Z,3.30
2023-01-28T14:57:41.915Z,3.30
2023-01-28T15:00:30.856Z,3.10
2023-01-28T15:02:57.946Z,2.90
2023-01-28T15:05:27.334Z,2.90
2023-01-28T15:07:56.063Z,2.90
2023-01-28T15:10:29.308Z,2.90
2023-01-28T15:12:57.551Z,2.80
2023-01-28T15:15:38.376Z,2.90
2023-01-28T15:18:12.670Z,2.80
2023-01-28T15:20:43.674Z,2.80
2023-01-28T15:23:14.254Z,2.70
2023-01-28T15:25:41.204Z,2.70
2023-01-28T15:28:17.858Z,2.60
2023-01-28T15:30:46.706Z,2.60
2023-01-28T15:33:17.155Z,2.60
2023-01-28T15:35:52.282Z,2.50
2023-01-28T15:38:19.204Z,2.50
2023-01-28T15:40:52.337Z,2.40
2023-01-28T15:43:25.681Z,2.40
2023-01-28T15:45:56.042Z,2.30
2023-01-28T15:48:26.532Z,2.30
2023-01-28T15:51:07.930Z,2.30
2023-01-28T15:53:37.535Z,2.40
2023-01-28T15:56:10.266Z,2.40
2023-01-28T15:58:41.459Z,2.40
2023-01-28T16:01:08.648Z,2.40
2023-01-28T16:03:40.757Z,2.40
2023-01-28T16:06:12.226Z,2.50
2023-01-28T16:08:54.344Z,2.50
2023-01-28T16:11:33.602Z,2.40
2023-01-28T16:14:01.125Z,2.30
2023-01-28T16:16:36.932Z,2.20
2023-01-28T16:19:06.784Z,2.20
2023-01-28T16:21:43.214Z,2.20
2023-01-28T16:24:26.866Z,2.20
2023-01-28T16:27:02.606Z,2.00
2023-01-28T16:29:31.161Z,1.90
2023-01-28T16:31:59.950Z,1.80
2023-01-28T16:34:27.698Z,1.70
2023-01-28T16:36:59.083Z,1.60
2023-01-28T16:39:25.955Z,1.60
2023-01-28T16:41:53.688Z,1.50
2023-01-28T16:44:20.524Z,1.50
2023-01-28T16:46:47.567Z,1.50
2023-01-28T16:49:14.514Z,1.50
2023-01-28T16:51:45.820Z,1.50
2023-01-28T16:54:15.933Z,1.60
2023-01-28T16:56:46.452Z,1.60
2023-01-28T16:59:15.838Z,1.70
2023-01-28T17:01:43.849Z,1.70
2023-01-28T17:04:12.800Z,1.70
2023-01-28T17:06:43.257Z,1.80
2023-01-28T17:09:14.440Z,1.80
2023-01-28T17:11:42.020Z,1.70
2023-01-28T17:14:12.548Z,1.80
2023-01-28T17:16:39.733Z,1.90
2023-01-28T17:19:06.577Z,1.90
2023-01-28T17:21:33.389Z,1.90
2023-01-28T17:24:01.587Z,1.90
2023-01-28T17:26:29.207Z,2.00
2023-01-28T17:28:56.430Z,1.80
2023-01-28T17:31:23.624Z,1.60
2023-01-28T17:33:55.095Z,1.50
2023-01-28T17:36:22.433Z,1.40
2023-01-28T17:38:49.347Z,1.40
2023-01-28T17:41:19.556Z,1.40
2023-01-28T17:43:56.359Z,1.40
2023-01-28T17:46:25.347Z,1.50
2023-01-28T17:48:52.503Z,1.50
2023-01-28T17:51:19.610Z,1.50
2023-01-28T17:53:50.805Z,1.50
2023-01-28T17:56:26.520Z,1.50
2023-01-28T17:58:55.071Z,1.50
2023-01-28T18:01:23.776Z,1.50
2023-01-28T18:03:50.921Z,1.60
2023-01-28T18:06:18.230Z,1.60
2023-01-28T18:08:45.485Z,1.60
2023-01-28T18:11:14.484Z,1.70
2023-01-28T18:13:42.605Z,1.70
2023-01-28T18:16:14.854Z,1.70
2023-01-28T18:18:42.167Z,1.70
2023-01-28T18:21:54.169Z,1.70
2023-01-28T18:24:27.203Z,1.70
2023-01-28T18:26:58.204Z,1.60
2023-01-28T18:29:26.187Z,1.50
2023-01-28T18:31:55.148Z,1.50
2023-01-28T18:34:28.177Z,1.40
2023-01-28T18:36:57.079Z,1.20
2023-01-28T18:39:26.028Z,1.30
2023-01-28T18:41:54.809Z,1.40
2023-01-28T18:44:23.134Z,1.50
2023-01-28T18:46:51.117Z,1.50
2023-01-28T18:49:18.251Z,1.40
2023-01-28T18:51:45.127Z,1.40
2023-01-28T18:54:14.671Z,1.50
2023-01-28T18:56:42.613Z,1.50
2023-01-28T18:59:12.526Z,1.50
2023-01-28T19:01:40.404Z,1.50
2023-01-28T19:04:07.238Z,1.50
2023-01-28T19:06:34.128Z,1.60
2023-01-28T19:09:06.325Z,1.60
2023-01-28T19:11:34.703Z,1.70
2023-01-28T19:14:02.136Z,1.60
2023-01-28T19:16:29.440Z,1.60
2023-01-28T19:19:01.110Z,1.70
2023-01-28T19:21:29.731Z,1.70
2023-01-28T19:24:02.626Z,1.70
2023-01-28T19:26:31.081Z,1.70
2023-01-28T19:28:58.192Z,1.60
2023-01-28T19:31:26.441Z,1.60
2023-01-28T19:33:55.812Z,1.50
2023-01-28T19:36:24.235Z,1.50
2023-01-28T19:38:51.134Z,1.50
2023-01-28T19:41:18.098Z,1.40
2023-01-28T19:43:45.298Z,1.40
2023-01-28T19:46:15.770Z,1.40
2023-01-28T19:48:43.624Z,1.30
2023-01-28T19:51:11.915Z,1.30
2023-01-28T19:53:40.865Z,1.30
2023-01-28T19:56:12.019Z,1.30
2023-01-28T19:58:42.050Z,1.20
2023-01-28T20:01:16.305Z,1.10
2023-01-28T20:03:44.092Z,1.00
2023-01-28T20:06:14.150Z,0.90
2023-01-28T20:08:41.418Z,0.80
2023-01-28T20:11:09.724Z,0.70
2023-01-28T20:13:37.336Z,0.60
2023-01-28T20:16:08.599Z,0.70
2023-01-28T20:18:35.718Z,0.70
2023-01-28T20:21:04.962Z,0.80
2023-01-28T20:23:32.850Z,0.90
2023-01-28T20:26:01.220Z,1.00
2023-01-28T20:28:28.272Z,1.10
2023-01-28T20:30:56.246Z,1.10
2023-01-28T20:33:23.697Z,1.10
2023-01-28T20:35:50.549Z,1.20
2023-01-28T20:38:17.464Z,1.30
2023-01-28T20:40:44.366Z,1.30
2023-01-28T20:43:11.563Z,1.30
2023-01-28T20:45:38.404Z,1.30
2023-01-28T20:48:05.512Z,1.30
2023-01-28T20:50:32.430Z,1.30
2023-01-28T20:52:59.278Z,1.30
2023-01-28T20:55:28.546Z,1.30
2023-01-28T20:57:55.461Z,1.30
2023-01-28T21:00:22.714Z,1.30
2023-01-28T21:02:49.652Z,1.30
2023-01-28T21:05:16.531Z,1.30
2023-01-28T21:07:43.335Z,1.30
2023-01-28T21:10:11.023Z,1.30
2023-01-28T21:12:37.857Z,1.30
2023-01-28T21:15:05.754Z,1.20
2023-01-28T21:17:32.617Z,1.30
2023-01-28T21:19:59.470Z,1.30
2023-01-28T21:22:26.299Z,1.30
2023-01-28T21:24:53.285Z,1.30
2023-01-28T21:27:20.273Z,1.40
2023-01-28T21:29:47.073Z,1.40
2023-01-28T21:32:15.855Z,1.30
2023-01-28T21:34:42.994Z,1.20
2023-01-28T21:37:09.772Z,1.30
2023-01-28T21:39:36.579Z,1.30
2023-01-28T21:42:03.643Z,1.30
2023-01-28T21:44:30.437Z,1.30
2023-01-28T21:46:57.197Z,1.50
2023-01-28T21:49:23.971Z,1.60
2023-01-28T21:51:50.744Z,1.50
2023-01-28T21:54:20.853Z,1.50
2023-01-28T21:56:50.184Z,1.50
2023-01-28T21:59:33.295Z,1.50
2023-01-28T22:02:23.736Z,1.50
2023-01-28T22:04:50.736Z,1.50
2023-01-28T22:07:19.537Z,1.50
2023-01-28T22:09:47.427Z,1.50
2023-01-28T22:12:15.288Z,1.50
2023-01-28T22:14:43.370Z,1.50
2023-01-28T22:17:11.448Z,1.50
2023-01-28T22:19:39.099Z,1.60
2023-01-28T22:22:07.054Z,1.60
2023-01-28T22:24:34.023Z,1.70
2023-01-28T22:27:01.142Z,1.70
2023-01-28T22:29:27.949Z,1.70
2023-01-28T22:31:55.187Z,1.80
2023-01-28T22:34:23.028Z,1.80
2023-01-28T22:36:51.064Z,1.70
2023-01-28T22:39:18.900Z,1.80
2023-01-28T22:41:46.737Z,1.80
2023-01-28T22:44:13.797Z,1.80
2023-01-28T22:46:40.686Z,1.90
2023-01-28T22:49:07.650Z,2.00
2023-01-28T22:51:36.251Z,2.00
2023-01-28T22:54:03.998Z,2.00
2023-01-28T22:56:31.284Z,2.00
2023-01-28T22:59:01.021Z,2.00
2023-01-28T23:01:28.723Z,2.10
2023-01-28T23:03:56.351Z,2.00
2023-01-28T23:06:25.937Z,2.00
2023-01-28T23:08:54.291Z,2.10
2023-01-28T23:11:28.032Z,2.10
2023-01-28T23:14:17.513Z,2.20
2023-01-28T23:17:03.100Z,2.10
2023-01-28T23:19:49.160Z,2.10
2023-01-28T23:22:45.511Z,2.10
2023-01-28T23:25:13.065Z,2.00
2023-01-28T23:27:39.882Z,2.10
2023-01-28T23:30:10.505Z,2.10
2023-01-28T23:32:43.509Z,2.00
2023-01-28T23:35:11.056Z,2.00
2023-01-28T23:37:38.548Z,2.10
2023-01-28T23:40:06.826Z,2.10
2023-01-28T23:42:33.717Z,2.20
2023-01-28T23:45:00.483Z,2.20
2023-01-28T23:47:27.379Z,2.10
2023-01-28T23:49:54.336Z,2.20
2023-01-28T23:52:21.304Z,2.20
2023-01-28T23:54:48.119Z,2.20
2023-01-28T23:57:14.995Z,2.20
2023-01-28T23:59:42.484Z,2.30
